Time;durP1;ratioP1;P1;durP2;ratioP2;P2;SDS_P1;SDS_P2;PMS_P1;PMS_P2;Temp;Humidity;BMP_temperature;BMP_pressure;BME280_temperature;BME280_humidity;BME280_pressure;Samples;Min_cycle;Max_cycle;Signal;HPM_P1;HPM_P2
2022/11/20 00:01:13;;;;;;;29.13;12.40;;;;;;;-143.48;71.46;80382.59;5053963;28;20108;-32
2022/11/20 00:03:38;;;;;;;23.15;10.02;;;;;;;-143.48;70.36;80394.50;5052027;28;20539;-32
2022/11/20 00:06:06;;;;;;;23.10;11.25;;;;;;;-143.48;69.24;80386.56;5051467;28;20156;-32
2022/11/20 00:08:31;;;;;;;21.52;10.38;;;;;;;-143.48;69.17;80364.75;5051535;28;20500;-32
2022/11/20 00:10:57;;;;;;;21.50;9.35;;;;;;;-143.48;69.52;80382.59;5051475;28;20051;-33
2022/11/20 00:13:22;;;;;;;22.02;10.75;;;;;;;-143.48;69.49;80394.50;5051468;28;20032;-32
2022/11/20 00:15:48;;;;;;;18.50;9.82;;;;;;;-143.48;70.60;80426.25;5051432;28;20031;-32
2022/11/20 00:18:13;;;;;;;22.77;10.27;;;;;;;-143.48;71.95;80452.03;5052430;28;20126;-32
2022/11/20 00:20:38;;;;;;;22.45;11.00;;;;;;;-143.48;71.81;80446.09;5035124;28;20094;-32
2022/11/20 00:23:05;;;;;;;26.30;11.85;;;;;;;-143.48;72.24;80438.16;5053229;28;20044;-33
2022/11/20 00:25:31;;;;;;;27.10;12.15;;;;;;;-143.48;72.13;80412.38;5053350;28;20055;-33
2022/11/20 00:27:56;;;;;;;31.90;12.45;;;;;;;-143.48;71.99;80414.34;5056195;28;20100;-32
2022/11/20 00:30:21;;;;;;;25.40;11.90;;;;;;;-143.48;71.70;80424.28;5056772;28;20029;-32
2022/11/20 00:32:46;;;;;;;22.65;11.23;;;;;;;-143.48;71.84;80436.19;5056132;28;20532;-32
2022/11/20 00:35:12;;;;;;;27.80;11.95;;;;;;;-143.48;72.05;80440.16;5056861;28;20031;-34
2022/11/20 00:37:37;;;;;;;27.85;12.10;;;;;;;-143.48;72.58;80440.16;5056809;28;20526;-33
2022/11/20 00:40:03;;;;;;;20.58;11.48;;;;;;;-143.48;72.82;80430.22;5056647;28;20033;-32
2022/11/20 00:42:28;;;;;;;20.98;10.75;;;;;;;-143.48;73.02;80430.22;5056878;28;20060;-33
2022/11/20 00:44:53;;;;;;;20.83;11.15;;;;;;;-143.48;72.40;80450.06;5057069;28;20048;-32
2022/11/20 00:47:18;;;;;;;22.35;11.25;;;;;;;-143.48;72.91;80452.03;5056929;28;20371;-32
2022/11/20 00:49:44;;;;;;;24.95;12.02;;;;;;;-143.48;72.58;80446.09;5056772;28;20060;-32
2022/11/20 00:52:09;;;;;;;35.58;13.45;;;;;;;-143.48;73.03;80438.16;5057237;28;20036;-32
2022/11/20 00:54:34;;;;;;;24.77;12.77;;;;;;;-143.48;72.85;80422.28;5056959;28;20101;-32
2022/11/20 00:57:00;;;;;;;27.23;13.05;;;;;;;-143.48;72.60;80428.25;5056824;28;20071;-32
2022/11/20 00:59:25;;;;;;;33.38;14.45;;;;;;;-143.48;72.38;80442.13;5056919;28;20456;-32
2022/11/20 01:01:50;;;;;;;28.88;13.60;;;;;;;-143.48;72.58;80434.19;5056846;28;20025;-32
2022/11/20 01:04:16;;;;;;;30.85;13.73;;;;;;;-143.48;72.82;80432.22;5056766;28;20379;-32
2022/11/20 01:06:41;;;;;;;29.48;13.43;;;;;;;-143.48;72.91;80446.09;5056746;28;20108;-33
2022/11/20 01:09:10;;;;;;;29.63;13.15;;;;;;;-143.48;73.11;80430.22;5056458;28;20025;-32
2022/11/20 01:11:38;;;;;;;26.17;13.02;;;;;;;-143.48;72.67;80450.06;5056314;28;20074;-32
2022/11/20 01:14:06;;;;;;;28.38;12.73;;;;;;;-143.48;72.79;80422.28;5056610;28;20025;-32
2022/11/20 01:16:35;;;;;;;26.67;11.90;;;;;;;-143.48;72.22;80418.31;5056468;28;20017;-32
2022/11/20 01:19:03;;;;;;;25.75;11.82;;;;;;;-143.48;72.56;80432.22;5056114;28;20037;-32
2022/11/20 01:21:34;;;;;;;31.45;13.73;;;;;;;-143.48;72.53;80414.34;5055299;28;20035;-32
2022/11/20 01:24:00;;;;;;;26.58;12.38;;;;;;;-143.48;72.75;80420.31;5054139;28;20499;-32
2022/11/20 01:26:31;;;;;;;22.02;11.52;;;;;;;-143.48;72.57;80422.28;5054492;28;20029;-33
2022/11/20 01:28:58;;;;;;;25.10;11.50;;;;;;;-143.48;72.58;80442.13;5056171;28;20487;-32
2022/11/20 01:31:28;;;;;;;24.98;12.05;;;;;;;-143.48;73.25;80434.19;5056066;28;20020;-32
2022/11/20 01:33:56;;;;;;;23.98;11.73;;;;;;;-143.48;73.17;80430.22;5056024;28;20025;-32
2022/11/20 01:36:24;;;;;;;25.92;12.18;;;;;;;-143.48;72.92;80418.31;5056153;28;20080;-32
2022/11/20 01:38:57;;;;;;;25.05;12.70;;;;;;;-143.48;72.22;80418.31;5053654;28;20078;-32
2022/11/20 01:44:12;;;;;;;28.17;13.45;;;;;;;-143.48;72.96;80450.06;5056017;28;20060;-32
2022/11/20 01:46:42;;;;;;;27.85;12.13;;;;;;;-143.48;72.95;80428.25;5055932;28;20105;-33
2022/11/20 01:49:14;;;;;;;22.00;11.52;;;;;;;-143.48;72.51;80430.22;5054297;28;20029;-32
2022/11/20 01:51:43;;;;;;;22.13;11.15;;;;;;;-143.48;73.12;80444.13;5053456;28;20036;-32
2022/11/20 01:54:16;;;;;;;21.85;10.40;;;;;;;-143.48;73.72;80450.06;5053420;28;20107;-32
2022/11/20 01:56:44;;;;;;;20.45;9.65;;;;;;;-143.48;73.11;80448.06;5053308;28;20100;-32
2022/11/20 01:59:12;;;;;;;16.08;9.15;;;;;;;-143.48;73.47;80444.13;5053316;28;20525;-32
2022/11/20 02:01:38;;;;;;;19.63;9.60;;;;;;;-143.48;73.11;80440.16;5053268;28;20025;-32
2022/11/20 02:04:05;;;;;;;23.27;10.07;;;;;;;-143.48;73.25;80444.13;5053472;28;20029;-32
2022/11/20 02:06:38;;;;;;;18.75;9.63;;;;;;;-143.48;73.66;80446.09;5053692;28;20029;-32
2022/11/20 02:09:06;;;;;;;19.38;9.85;;;;;;;-143.48;73.42;80438.16;5055239;28;20166;-33
2022/11/20 02:11:32;;;;;;;20.23;10.20;;;;;;;-143.48;73.60;80438.16;5037023;28;20477;-33
2022/11/20 02:13:58;;;;;;;19.83;9.73;;;;;;;-143.48;73.43;80434.19;5053849;28;20158;-32
2022/11/20 02:16:35;;;;;;;19.63;10.40;;;;;;;-143.48;73.43;80432.22;5036838;28;20365;-32
2022/11/20 02:19:03;;;;;;;19.58;10.05;;;;;;;-143.48;73.18;80436.19;5054241;28;20106;-32
2022/11/20 02:21:34;;;;;;;21.85;11.32;;;;;;;-143.48;73.44;80434.19;5053558;28;20557;-32
2022/11/20 02:24:09;;;;;;;21.13;11.07;;;;;;;-143.48;73.79;80422.28;5054967;28;20464;-32
2022/11/20 02:26:43;;;;;;;24.33;11.18;;;;;;;-143.48;73.27;80414.34;5055152;28;20025;-32
2022/11/20 02:29:09;;;;;;;23.50;10.43;;;;;;;-143.48;73.01;80424.28;5055510;28;20025;-32
2022/11/20 02:31:39;;;;;;;24.17;10.48;;;;;;;-143.48;73.17;80416.34;5054786;28;20017;-33
2022/11/20 02:34:05;;;;;;;21.63;10.48;;;;;;;-143.48;73.48;80420.31;5054678;28;20056;-32
2022/11/20 02:36:34;;;;;;;22.30;10.30;;;;;;;-143.48;73.14;80424.28;5055201;28;20118;-33
2022/11/20 02:38:59;;;;;;;24.00;10.55;;;;;;;-143.48;73.00;80432.22;5055011;28;20025;-33
2022/11/20 02:41:38;;;;;;;21.38;10.88;;;;;;;-143.48;73.37;80438.16;5055292;28;20036;-32
2022/11/20 02:44:04;;;;;;;21.25;10.23;;;;;;;-143.48;73.46;80454.03;5054794;28;20052;-33
2022/11/20 02:46:30;;;;;;;23.17;10.00;;;;;;;-143.48;74.36;80477.84;5054560;28;20029;-33
2022/11/20 02:48:56;;;;;;;17.70;9.30;;;;;;;-143.48;73.93;80475.84;5054810;28;20025;-32
2022/11/20 02:51:21;;;;;;;20.95;9.45;;;;;;;-143.48;73.88;80458.00;5054126;28;20029;-33
2022/11/20 02:53:46;;;;;;;17.95;9.02;;;;;;;-143.48;73.63;80458.00;5054803;28;20025;-33
2022/11/20 02:56:12;;;;;;;18.13;9.27;;;;;;;-143.48;73.14;80444.13;5054413;28;20051;-33
2022/11/20 02:58:37;;;;;;;19.15;9.18;;;;;;;-143.48;73.67;80444.13;5054368;28;20075;-33
2022/11/20 03:01:02;;;;;;;18.52;9.45;;;;;;;-143.48;73.70;80454.03;5054568;28;20383;-33
2022/11/20 03:03:28;;;;;;;17.50;10.25;;;;;;;-143.48;74.01;80454.03;5054641;28;20495;-33
2022/11/20 03:05:53;;;;;;;20.73;9.85;;;;;;;-143.48;73.27;80446.09;5054306;28;20069;-33
2022/11/20 03:08:18;;;;;;;18.60;9.23;;;;;;;-143.48;73.76;80475.84;5054169;28;20017;-34
2022/11/20 03:10:43;;;;;;;17.30;9.05;;;;;;;-143.48;74.22;80450.06;5054470;28;20021;-32
2022/11/20 03:13:09;;;;;;;19.73;9.52;;;;;;;-143.48;73.88;80442.13;5054441;28;20108;-33
2022/11/20 03:15:36;;;;;;;17.63;9.25;;;;;;;-143.48;74.12;80436.19;5054151;28;20464;-32
2022/11/20 03:18:01;;;;;;;18.52;9.35;;;;;;;-143.48;73.67;80434.19;5054510;28;20116;-33
2022/11/20 03:20:26;;;;;;;18.40;9.52;;;;;;;-143.48;74.27;80428.25;5053827;28;20045;-32
2022/11/20 03:22:53;;;;;;;19.48;9.63;;;;;;;-143.48;74.23;80426.25;5054447;28;20021;-32
2022/11/20 03:25:19;;;;;;;24.05;10.43;;;;;;;-143.48;73.38;80426.25;5054415;28;20103;-33
2022/11/20 03:27:44;;;;;;;20.52;9.45;;;;;;;-143.48;73.58;80430.22;5053833;28;20055;-32
2022/11/20 03:30:10;;;;;;;19.65;9.48;;;;;;;-143.48;73.95;80424.28;5053801;28;20035;-32
2022/11/20 03:32:35;;;;;;;19.50;9.70;;;;;;;-143.48;73.57;80412.38;5053934;28;20051;-33
2022/11/20 03:35:00;;;;;;;20.40;9.50;;;;;;;-143.48;73.54;80416.34;5053663;28;20036;-33
2022/11/20 03:37:25;;;;;;;21.38;9.57;;;;;;;-143.48;73.98;80428.25;5053613;28;20113;-33
2022/11/20 03:39:51;;;;;;;19.23;9.30;;;;;;;-143.48;73.88;80412.38;5053867;28;20114;-33
2022/11/20 03:45:00;;;;;;;18.40;9.23;;;;;;;-143.48;73.33;80428.25;5054152;28;20059;-33
2022/11/20 03:47:25;;;;;;;18.42;9.63;;;;;;;-143.48;73.76;80430.22;5053459;28;20028;-33
2022/11/20 03:49:51;;;;;;;18.15;9.45;;;;;;;-143.48;74.18;80428.25;5054552;28;20103;-33
2022/11/20 03:52:16;;;;;;;21.17;9.98;;;;;;;-143.48;73.78;80420.31;5053583;28;20079;-33
2022/11/20 03:54:42;;;;;;;18.27;9.20;;;;;;;-143.48;74.14;80434.19;5035540;28;20365;-36
2022/11/20 03:57:07;;;;;;;19.90;9.68;;;;;;;-143.48;74.17;80426.25;5053535;28;20060;-33
2022/11/20 03:59:32;;;;;;;22.65;10.15;;;;;;;-143.48;73.78;80396.50;5053582;28;20021;-32
2022/11/20 04:01:58;;;;;;;23.38;9.98;;;;;;;-143.48;73.16;80406.41;5052549;28;20075;-32
2022/11/20 04:04:23;;;;;;;19.33;9.73;;;;;;;-143.48;73.77;80408.41;5053582;28;20025;-33
2022/11/20 04:06:48;;;;;;;19.38;9.40;;;;;;;-143.48;73.65;80432.22;5053520;28;20111;-32
2022/11/20 04:09:13;;;;;;;22.85;10.18;;;;;;;-143.48;73.54;80452.03;5053261;28;20479;-33
2022/11/20 04:11:40;;;;;;;16.92;9.07;;;;;;;-143.48;74.49;80454.03;5053224;28;20134;-32
2022/11/20 04:14:12;;;;;;;19.00;9.80;;;;;;;-143.48;74.14;80428.25;5052972;28;20021;-32
2022/11/20 04:16:37;;;;;;;17.40;9.30;;;;;;;-143.48;73.17;80428.25;5053410;28;20033;-32
2022/11/20 04:19:06;;;;;;;18.50;8.85;;;;;;;-143.48;73.70;80432.22;5052942;28;20064;-33
2022/11/20 04:21:32;;;;;;;19.33;9.35;;;;;;;-143.48;73.22;80422.28;5053119;28;20028;-33
2022/11/20 04:23:57;;;;;;;18.00;9.30;;;;;;;-143.48;73.32;80428.25;5053007;28;20025;-33
2022/11/20 04:26:25;;;;;;;18.48;9.18;;;;;;;-143.48;73.28;80432.22;5053148;28;20032;-32
2022/11/20 04:28:50;;;;;;;18.15;9.50;;;;;;;-143.48;72.82;80438.16;5053034;28;20024;-33
2022/11/20 04:31:18;;;;;;;17.17;8.82;;;;;;;-143.48;73.50;80473.88;5053027;28;20021;-33
2022/11/20 04:33:44;;;;;;;15.35;8.38;;;;;;;-143.48;73.83;80469.91;5053281;28;20022;-33
2022/11/20 04:36:12;;;;;;;17.15;8.93;;;;;;;-143.48;72.79;80450.06;5035081;28;20024;-33
2022/11/20 04:38:38;;;;;;;21.58;9.25;;;;;;;-143.48;72.69;80469.91;5053440;28;20056;-38
2022/11/20 04:41:05;;;;;;;17.65;9.25;;;;;;;-143.48;72.71;80461.97;5052920;28;20549;-32
2022/11/20 04:43:32;;;;;;;18.58;8.65;;;;;;;-143.48;73.14;80477.84;5053461;28;20021;-33
2022/11/20 04:45:58;;;;;;;18.45;9.50;;;;;;;-143.48;72.19;80475.84;5053118;28;20063;-32
2022/11/20 04:48:24;;;;;;;16.45;8.65;;;;;;;-143.48;72.61;80485.78;5052799;28;20468;-32
2022/11/20 04:50:51;;;;;;;17.90;9.30;;;;;;;-143.48;72.56;80452.03;5052819;28;20028;-32
2022/11/20 04:53:16;;;;;;;18.05;8.82;;;;;;;-143.48;72.40;80442.13;5053326;28;20039;-33
2022/11/20 04:55:42;;;;;;;17.23;9.00;;;;;;;-143.48;72.32;80446.09;5052804;28;20025;-33
2022/11/20 04:58:07;;;;;;;17.90;9.77;;;;;;;-143.48;72.50;80454.03;5052910;28;20032;-32
2022/11/20 05:00:32;;;;;;;20.52;9.85;;;;;;;-143.48;72.97;80452.03;5052639;28;20033;-33
2022/11/20 05:02:58;;;;;;;17.85;10.00;;;;;;;-143.48;72.59;80448.06;5052994;28;20021;-33
2022/11/20 05:05:23;;;;;;;24.40;10.07;;;;;;;-143.48;73.70;80461.97;5052623;28;20529;-33
2022/11/20 05:07:48;;;;;;;19.83;9.43;;;;;;;-143.48;73.32;80456.03;5052573;28;20472;-32
2022/11/20 05:10:14;;;;;;;18.05;9.10;;;;;;;-143.48;72.76;80438.16;5053163;28;20029;-33
2022/11/20 05:12:39;;;;;;;19.70;9.00;;;;;;;-143.48;72.42;80434.19;5052862;28;20071;-33
2022/11/20 05:15:05;;;;;;;18.23;8.90;;;;;;;-143.48;72.85;80424.28;5056191;28;20097;-33
2022/11/20 05:17:30;;;;;;;18.52;8.85;;;;;;;-143.48;72.37;80454.03;5054430;28;20487;-33
2022/11/20 05:19:55;;;;;;;21.80;8.82;;;;;;;-143.48;72.44;80463.94;5053984;28;20137;-32
2022/11/20 05:22:21;;;;;;;19.33;9.55;;;;;;;-143.48;73.04;80458.00;5056090;28;20425;-33
2022/11/20 05:24:46;;;;;;;18.48;10.07;;;;;;;-143.48;72.48;80436.19;5056186;28;20078;-33
2022/11/20 05:27:12;;;;;;;17.83;9.13;;;;;;;-143.48;71.80;80432.22;5056206;28;20203;-32
2022/11/20 05:29:37;;;;;;;16.92;9.25;;;;;;;-143.48;72.25;80463.94;5056044;28;20021;-32
2022/11/20 05:32:02;;;;;;;20.23;9.68;;;;;;;-143.48;72.06;80452.03;5056283;28;20443;-33
2022/11/20 05:34:28;;;;;;;19.77;9.48;;;;;;;-143.48;72.71;80469.91;5038226;28;20020;-32
2022/11/20 05:36:53;;;;;;;19.70;10.15;;;;;;;-143.48;72.45;80479.81;5055369;28;20035;-32
2022/11/20 05:39:18;;;;;;;19.00;9.93;;;;;;;-143.48;72.46;80481.81;5055091;28;20381;-33
2022/11/20 05:41:43;;;;;;;19.67;9.48;;;;;;;-143.48;72.27;80469.91;5037802;28;20025;-33
2022/11/20 05:44:12;;;;;;;15.90;8.82;;;;;;;-143.48;72.06;80471.88;5055872;28;20445;-32
2022/11/20 05:46:37;;;;;;;19.17;9.60;;;;;;;-143.48;72.17;80458.00;5053542;28;20663;-33
2022/11/20 05:49:02;;;;;;;19.30;9.13;;;;;;;-143.48;72.04;80446.09;5053573;28;20095;-33
2022/11/20 05:51:27;;;;;;;21.00;10.18;;;;;;;-143.48;72.26;80485.78;5053571;28;20032;-33
2022/11/20 05:53:55;;;;;;;18.05;9.25;;;;;;;-143.48;72.41;80485.78;5053656;28;20696;-32
2022/11/20 05:56:21;;;;;;;19.77;9.60;;;;;;;-143.48;72.25;80495.69;5053618;28;20410;-33
2022/11/20 05:58:48;;;;;;;17.40;9.85;;;;;;;-143.48;72.66;80491.72;5053401;28;20035;-33
2022/11/20 06:01:17;;;;;;;18.80;9.43;;;;;;;-143.48;72.88;80507.59;5053953;28;20036;-33
2022/11/20 06:03:45;;;;;;;18.08;9.25;;;;;;;-143.48;72.70;80499.66;5055470;28;20505;-33
2022/11/20 06:06:12;;;;;;;20.52;10.27;;;;;;;-143.48;73.31;80489.75;5055718;28;20089;-32
2022/11/20 06:08:37;;;;;;;17.63;9.23;;;;;;;-143.48;72.79;80483.78;5055402;28;20025;-33
2022/11/20 06:11:07;;;;;;;20.55;9.75;;;;;;;-143.48;72.62;80489.75;5055925;28;20036;-33
2022/11/20 06:13:32;;;;;;;18.35;10.07;;;;;;;-143.48;72.53;80481.81;5055503;28;20380;-32
2022/11/20 06:15:58;;;;;;;20.42;10.50;;;;;;;-143.48;72.71;80483.78;5055465;28;20028;-33
2022/11/20 06:18:23;;;;;;;19.70;9.93;;;;;;;-143.48;72.28;80469.91;5055328;28;20031;-32
2022/11/20 06:20:48;;;;;;;19.38;10.55;;;;;;;-143.48;72.86;80481.81;5055022;28;20127;-33
2022/11/20 06:23:13;;;;;;;21.33;11.30;;;;;;;-143.48;73.23;80463.94;5055118;28;20078;-33
2022/11/20 06:25:43;;;;;;;23.63;10.00;;;;;;;-143.48;72.04;80450.06;5054595;28;20029;-33
2022/11/20 06:28:09;;;;;;;19.40;9.55;;;;;;;-143.48;71.85;80444.13;5055269;28;20040;-33
2022/11/20 06:30:34;;;;;;;19.13;9.25;;;;;;;-143.48;71.36;80432.22;5036746;28;20021;-32
2022/11/20 06:33:00;;;;;;;17.27;9.05;;;;;;;-143.48;71.15;80442.13;5053823;28;20032;-32
2022/11/20 06:35:25;;;;;;;21.52;10.13;;;;;;;-143.48;71.76;80454.03;5052760;28;20021;-32
2022/11/20 06:37:50;;;;;;;20.05;9.90;;;;;;;-143.48;71.74;80471.88;5052640;28;20025;-33
2022/11/20 06:40:16;;;;;;;19.65;9.45;;;;;;;-143.48;71.90;80461.97;5053042;28;20541;-33
2022/11/20 06:42:41;;;;;;;18.77;9.32;;;;;;;-143.48;71.37;80473.88;5052790;28;20086;-33
2022/11/20 06:45:07;;;;;;;19.48;9.80;;;;;;;-143.48;71.25;80475.84;5034598;28;20075;-34
2022/11/20 06:47:33;;;;;;;17.73;8.85;;;;;;;-143.48;71.82;80497.69;5052375;28;20438;-32
2022/11/20 06:49:58;;;;;;;21.75;9.88;;;;;;;-143.48;72.52;80499.66;5053411;28;20025;-32
2022/11/20 06:52:23;;;;;;;17.40;9.23;;;;;;;-143.48;72.19;80495.69;5054596;28;20079;-32
2022/11/20 06:54:49;;;;;;;17.65;10.07;;;;;;;-143.48;72.24;80483.78;5054570;28;20353;-32
2022/11/20 06:57:14;;;;;;;19.63;9.77;;;;;;;-143.48;71.60;80485.78;5054272;28;20078;-32
2022/11/20 06:59:39;;;;;;;18.92;9.73;;;;;;;-143.48;72.55;80475.84;5054535;28;20372;-33
2022/11/20 07:02:04;;;;;;;19.67;10.15;;;;;;;-143.48;71.01;80444.13;5054787;28;20025;-33
2022/11/20 07:04:30;;;;;;;19.90;10.15;;;;;;;-143.48;71.61;80479.81;5053611;28;20021;-33
2022/11/20 07:06:56;;;;;;;19.23;9.75;;;;;;;-143.48;71.50;80473.88;5054691;28;20028;-33
2022/11/20 07:09:21;;;;;;;18.45;9.68;;;;;;;-143.48;71.89;80493.72;5036458;28;20039;-33
2022/11/20 07:11:46;;;;;;;19.98;9.52;;;;;;;-143.48;73.03;80481.81;5054550;28;20035;-33
2022/11/20 07:14:12;;;;;;;20.30;10.10;;;;;;;-143.48;72.51;80487.75;5054691;28;20454;-33
2022/11/20 07:16:37;;;;;;;22.83;10.27;;;;;;;-143.48;72.05;80458.00;5036207;28;20035;-33
2022/11/20 07:19:02;;;;;;;19.35;10.60;;;;;;;-143.48;72.31;80461.97;5053874;28;20048;-33
2022/11/20 07:21:27;;;;;;;26.55;12.02;;;;;;;-143.48;71.35;80420.31;5053726;28;20526;-34
2022/11/20 07:23:53;;;;;;;32.20;14.95;;;;;;;-143.48;71.05;80442.13;5054171;28;20376;-37
2022/11/20 07:26:19;;;;;;;25.50;12.02;;;;;;;-143.48;71.16;80434.19;5054114;28;20013;-32
2022/11/20 07:28:45;;;;;;;23.67;11.35;;;;;;;-143.48;70.71;80396.50;5054099;28;20025;-33
2022/11/20 07:31:11;;;;;;;22.13;11.55;;;;;;;-143.48;70.43;80432.22;5054029;28;20484;-33
2022/11/20 07:33:37;;;;;;;21.90;11.20;;;;;;;-143.48;70.47;80448.06;5053267;28;20043;-32
2022/11/20 07:36:02;;;;;;;21.27;11.57;;;;;;;-143.48;71.25;80461.97;5054046;28;20371;-32
2022/11/20 07:38:28;;;;;;;22.63;11.75;;;;;;;-143.48;70.69;80432.22;5053538;28;20072;-33
2022/11/20 07:41:01;;;;;;;22.02;11.25;;;;;;;-143.48;70.94;80454.03;5053610;28;20094;-33
2022/11/20 07:43:27;;;;;;;23.65;11.35;;;;;;;-143.48;71.40;80454.03;5053859;28;20033;-32
2022/11/20 07:45:55;;;;;;;22.48;11.77;;;;;;;-143.48;71.46;80428.25;5053637;28;20098;-32
2022/11/20 07:48:20;;;;;;;23.63;11.73;;;;;;;-143.48;70.50;80398.47;5053521;28;20031;-32
2022/11/20 07:50:45;;;;;;;24.42;11.40;;;;;;;-143.48;70.60;80380.63;5053747;28;20096;-33
2022/11/20 07:53:12;;;;;;;23.73;12.80;;;;;;;-143.48;70.47;80376.66;5053102;28;20028;-32
2022/11/20 07:55:37;;;;;;;26.13;12.80;;;;;;;-143.48;70.63;80372.69;5053716;28;20488;-33
2022/11/20 07:58:03;;;;;;;31.60;13.38;;;;;;;-143.48;69.78;80338.94;5053860;28;20063;-33
2022/11/20 08:00:28;;;;;;;25.00;12.30;;;;;;;-143.48;70.02;80356.81;5053553;28;20024;-33
2022/11/20 08:02:53;;;;;;;25.10;12.52;;;;;;;-143.48;69.74;80331.00;5053832;28;20149;-33
2022/11/20 08:05:19;;;;;;;24.23;12.05;;;;;;;-143.48;70.56;80319.09;5053434;28;20032;-34
2022/11/20 08:07:44;;;;;;;23.20;12.13;;;;;;;-143.48;71.17;80350.84;5053583;28;20044;-33
2022/11/20 08:10:12;;;;;;;22.58;11.50;;;;;;;-143.48;71.76;80327.03;5053434;28;20100;-33
2022/11/20 08:15:34;;;;;;;20.90;11.68;;;;;;;-143.48;71.31;80261.56;5053387;28;20040;-37
2022/11/20 08:18:01;;;;;;;22.58;11.85;;;;;;;-143.48;70.60;80257.59;5053130;28;20472;-32
2022/11/20 08:20:26;;;;;;;20.20;10.98;;;;;;;-143.48;70.89;80253.63;5053020;28;20053;-32
2022/11/20 08:22:52;;;;;;;22.45;12.20;;;;;;;-143.48;70.77;80247.69;5053070;28;20551;-32
2022/11/20 08:25:17;;;;;;;21.33;11.65;;;;;;;-143.48;70.90;80237.75;5053002;28;20487;-33
2022/11/20 08:27:42;;;;;;;21.42;11.63;;;;;;;-143.48;70.60;80233.78;5052897;28;20116;-33
2022/11/20 08:30:08;;;;;;;23.95;12.40;;;;;;;-143.48;70.94;80231.81;5053275;28;20467;-33
2022/11/20 08:32:35;;;;;;;22.20;11.70;;;;;;;-143.48;70.44;80206.00;5053177;28;20033;-33
2022/11/20 08:35:01;;;;;;;24.85;12.30;;;;;;;-143.48;71.08;80245.69;5035706;28;20021;-33
2022/11/20 08:37:26;;;;;;;25.23;12.90;;;;;;;-143.48;71.43;80215.94;5052883;28;20459;-33
2022/11/20 08:39:53;;;;;;;23.65;12.00;;;;;;;-143.48;70.16;80206.00;5053401;28;20227;-33
2022/11/20 08:42:18;;;;;;;23.40;12.02;;;;;;;-143.48;70.31;80168.31;5053094;28;20017;-33
2022/11/20 08:44:43;;;;;;;23.95;12.52;;;;;;;-143.48;70.05;80196.09;5053135;28;20078;-33
2022/11/20 08:47:09;;;;;;;24.23;13.38;;;;;;;-143.48;70.50;80174.25;5035868;28;20021;-33
2022/11/20 08:49:34;;;;;;;24.00;12.10;;;;;;;-143.48;70.10;80172.28;5056955;28;20029;-33
2022/11/20 08:51:59;;;;;;;24.73;13.18;;;;;;;-143.48;69.24;80168.31;5038955;28;20506;-33
2022/11/20 08:54:25;;;;;;;24.58;13.05;;;;;;;-143.48;69.94;80168.31;5057111;28;20017;-34
2022/11/20 08:56:50;;;;;;;30.50;14.13;;;;;;;-143.48;70.44;80174.25;5057596;28;20028;-33
2022/11/20 08:59:15;;;;;;;30.88;14.93;;;;;;;-143.48;70.11;80152.44;5057071;28;20027;-33
2022/11/20 09:01:40;;;;;;;26.80;14.20;;;;;;;-143.48;69.67;80152.44;5057125;28;20021;-33
2022/11/20 09:04:06;;;;;;;24.52;12.98;;;;;;;-143.48;68.94;80126.66;5057340;28;20029;-33
2022/11/20 09:06:31;;;;;;;26.83;12.75;;;;;;;-143.48;69.21;80156.41;5056748;28;20531;-33
2022/11/20 09:08:57;;;;;;;22.95;12.52;;;;;;;-143.48;69.19;80162.34;5056568;28;20472;-34
2022/11/20 09:11:22;;;;;;;24.75;12.90;;;;;;;-143.48;69.78;80152.44;5056499;28;20102;-33
2022/11/20 09:13:47;;;;;;;26.25;12.90;;;;;;;-143.48;68.85;80102.84;5057140;28;20039;-33
2022/11/20 09:16:13;;;;;;;23.60;12.35;;;;;;;-143.48;68.45;80090.94;5056464;28;20036;-33
2022/11/20 09:18:38;;;;;;;22.52;12.10;;;;;;;-143.48;68.91;80116.72;5056267;28;20029;-32
2022/11/20 09:21:07;;;;;;;23.38;13.23;;;;;;;-143.48;69.13;80112.75;5056758;28;20139;-33
2022/11/20 09:23:35;;;;;;;20.77;11.32;;;;;;;-143.48;69.35;80138.56;5056328;28;20032;-33
2022/11/20 09:26:09;;;;;;;27.20;13.23;;;;;;;-143.48;69.92;80088.94;5056369;28;20052;-33
2022/11/20 09:28:35;;;;;;;23.00;12.35;;;;;;;-143.48;68.78;80039.34;5056872;28;20028;-33
2022/11/20 09:31:00;;;;;;;23.55;12.15;;;;;;;-143.48;68.33;80057.19;5056416;28;20376;-33
2022/11/20 09:33:26;;;;;;;29.67;13.38;;;;;;;-143.48;67.85;80017.53;5056509;28;20024;-33
2022/11/20 09:35:52;;;;;;;24.25;13.13;;;;;;;-143.48;66.94;80011.56;5056248;28;20107;-33
2022/11/20 09:38:17;;;;;;;25.75;13.70;;;;;;;-143.48;67.58;80019.50;5038218;28;20527;-33
2022/11/20 09:41:03;;;;;;;27.15;13.40;;;;;;;-143.48;66.80;79954.03;5057046;28;20029;-33
2022/11/20 09:43:37;;;;;;;24.80;13.52;;;;;;;-143.48;66.19;79942.13;5037984;28;20021;-34
2022/11/20 09:46:19;;;;;;;24.58;13.30;;;;;;;-143.48;66.89;79969.91;5038056;28;20052;-34
2022/11/20 09:49:25;;;;;;;25.25;14.40;;;;;;;-143.48;65.92;79936.19;5056089;28;20376;-33
2022/11/20 09:51:57;;;;;;;25.30;13.02;;;;;;;-143.48;66.87;79956.03;5056035;28;20025;-33
2022/11/20 09:54:29;;;;;;;28.30;13.47;;;;;;;-143.48;66.25;79916.34;5056055;28;20477;-33
2022/11/20 09:56:59;;;;;;;27.13;13.70;;;;;;;-143.48;66.36;79894.50;5056032;28;20021;-33
2022/11/20 09:59:42;;;;;;;27.00;13.98;;;;;;;-143.48;65.11;79870.72;5054524;28;20100;-33
2022/11/20 10:02:26;;;;;;;22.90;13.60;;;;;;;-143.48;64.13;79833.00;5056179;28;20112;-33
2022/11/20 10:04:57;;;;;;;;;;;;;;;-143.48;64.79;79840.94;5056781;28;20031;-32
2022/11/20 10:07:37;;;;;;;24.42;13.38;;;;;;;-143.48;63.98;79821.09;5055579;28;19988;-32
2022/11/20 10:10:03;;;;;;;24.70;13.80;;;;;;;-143.48;64.49;79805.25;5056008;28;20112;-32
2022/11/20 10:12:38;;;;;;;25.23;13.73;;;;;;;-143.48;62.92;79739.78;5055675;28;20049;-32
2022/11/20 10:15:10;;;;;;;25.77;14.10;;;;;;;-143.48;64.03;79777.47;5055783;28;20028;-32
2022/11/20 10:17:51;;;;;;;28.67;13.77;;;;;;;-143.48;63.59;79773.50;5055164;28;20483;-32
2022/11/20 10:20:32;;;;;;;24.38;14.07;;;;;;;-143.48;65.10;79817.16;5055242;28;20052;-32
2022/11/20 10:22:57;;;;;;;25.08;14.43;;;;;;;-143.48;66.25;79799.28;5020952;28;20025;-32
2022/11/20 10:25:39;;;;;;;27.75;14.75;;;;;;;-143.48;64.54;79739.78;5055558;28;20082;-32
2022/11/20 10:28:17;;;;;;;25.25;14.63;;;;;;;-143.48;64.14;79712.00;5055241;28;20024;-32
2022/11/20 10:30:45;;;;;;;26.52;14.60;;;;;;;-143.48;64.20;79737.78;5037713;28;20028;-32
2022/11/20 10:33:19;;;;;;;25.98;14.68;;;;;;;-143.48;63.35;79682.25;5054403;28;20536;-32
2022/11/20 10:35:52;;;;;;;28.45;14.85;;;;;;;-143.48;65.43;79729.84;5035696;28;20119;-32
2022/11/20 10:38:32;;;;;;;27.98;14.63;;;;;;;-143.48;65.80;79725.88;5053721;28;20025;-32
2022/11/20 10:43:46;;;;;;;26.77;15.02;;;;;;;-143.48;66.80;79789.38;5053720;28;20043;-32
2022/11/20 10:46:18;;;;;;;26.58;14.70;;;;;;;-143.48;67.21;79739.78;5052860;28;20025;-32
2022/11/20 10:48:46;;;;;;;28.25;15.60;;;;;;;-143.48;67.67;79787.38;5052830;28;20059;-32
2022/11/20 10:51:30;;;;;;;30.70;15.77;;;;;;;-143.48;67.74;79765.56;5053930;28;20077;-32
2022/11/20 10:54:19;;;;;;;28.63;15.43;;;;;;;-143.48;68.19;79759.59;5054001;28;20027;-32
2022/11/20 10:56:53;;;;;;;31.35;15.30;;;;;;;-143.48;67.72;79686.19;5053655;28;20480;-32
2022/11/20 10:59:53;;;;;;;29.08;15.25;;;;;;;-143.48;68.15;79729.84;5053079;28;20491;-33
2022/11/20 11:02:23;;;;;;;28.50;15.63;;;;;;;-143.48;68.22;79713.97;5024002;28;20549;-33
2022/11/20 11:04:53;;;;;;;32.30;16.60;;;;;;;-143.48;68.81;79719.94;5054548;28;20049;-31
2022/11/20 11:07:33;;;;;;;29.00;15.85;;;;;;;-143.48;68.95;79712.00;5054797;28;20025;-33
2022/11/20 11:09:58;;;;;;;29.15;15.52;;;;;;;-143.48;69.18;79708.03;5054442;28;20024;-33
2022/11/20 11:12:25;;;;;;;34.22;16.08;;;;;;;-143.48;70.47;79710.00;5054310;28;20541;-33
2022/11/20 11:14:53;;;;;;;31.25;15.65;;;;;;;-143.48;69.85;79696.13;5054175;28;20443;-33
2022/11/20 11:17:33;;;;;;;34.72;17.35;;;;;;;-143.48;69.44;79688.19;5054464;28;20029;-33